Time;durP1;ratioP1;P1;durP2;ratioP2;P2;SDS_P1;SDS_P2;PMS_P1;PMS_P2;Temp;Humidity;BMP_temperature;BMP_pressure;BME280_temperature;BME280_humidity;BME280_pressure;Samples;Min_cycle;Max_cycle;Signal;HPM_P1;HPM_P2
2024/04/15 00:01:26;;;;;;;3.93;3.50;;;13.70;99.90;;;;;;4478943;26;20067;-59
2024/04/15 00:03:27;;;;;;;6.00;3.63;;;13.60;99.90;;;;;;4479097;26;20011;-57
2024/04/15 00:05:29;;;;;;;7.53;3.43;;;13.50;99.90;;;;;;4477549;26;20007;-58
2024/04/15 00:07:32;;;;;;;9.67;4.63;;;13.50;99.90;;;;;;4479044;26;20068;-57
2024/04/15 00:09:33;;;;;;;7.80;3.53;;;13.50;99.90;;;;;;4477304;26;20068;-60
2024/04/15 00:11:34;;;;;;;3.40;3.10;;;13.50;99.90;;;;;;4478950;26;20084;-58
2024/04/15 00:13:36;;;;;;;5.20;3.53;;;13.50;99.90;;;;;;4477563;26;20011;-60
2024/04/15 00:15:37;;;;;;;6.93;3.80;;;13.50;99.90;;;;;;4479046;26;20011;-58
2024/04/15 00:17:38;;;;;;;5.90;3.57;;;13.40;99.90;;;;;;4478078;26;20007;-59
2024/04/15 00:19:40;;;;;;;5.57;3.50;;;13.40;99.90;;;;;;4478398;26;20393;-58
2024/04/15 00:21:41;;;;;;;5.43;3.33;;;13.40;99.90;;;;;;4478351;26;20806;-59
2024/04/15 00:23:42;;;;;;;6.90;3.70;;;13.40;99.90;;;;;;4478333;26;19999;-57
2024/04/15 00:25:43;;;;;;;7.00;3.50;;;13.50;99.90;;;;;;4477581;26;20012;-59
2024/04/15 00:27:45;;;;;;;7.30;3.97;;;13.50;99.90;;;;;;4477814;26;20076;-59
2024/04/15 00:29:46;;;;;;;9.60;3.60;;;13.50;99.90;;;;;;4477854;26;20148;-60
2024/04/15 00:31:47;;;;;;;7.97;4.00;;;13.50;99.90;;;;;;4478143;26;20504;-60
2024/04/15 00:33:48;;;;;;;10.07;4.20;;;13.50;99.90;;;;;;4478111;26;20049;-60
2024/04/15 00:35:50;;;;;;;7.10;3.87;;;13.40;99.90;;;;;;4477147;26;20079;-58
2024/04/15 00:37:51;;;;;;;7.30;4.13;;;13.40;99.90;;;;;;4478070;26;20003;-59
2024/04/15 00:39:54;;;;;;;6.07;3.30;;;13.40;99.90;;;;;;4476980;26;20535;-60
2024/04/15 00:41:56;;;;;;;9.03;4.37;;;13.40;99.90;;;;;;4479258;26;20072;-59
2024/04/15 00:43:57;;;;;;;7.00;3.67;;;13.40;99.90;;;;;;4477471;26;19995;-59
2024/04/15 00:45:58;;;;;;;9.93;3.80;;;13.40;99.90;;;;;;4478815;26;20007;-59
2024/04/15 00:48:02;;;;;;;9.87;3.93;;;13.40;99.90;;;;;;4477063;26;20071;-60
2024/04/15 00:50:04;;;;;;;7.13;3.83;;;13.40;99.90;;;;;;4477992;26;20072;-59
2024/04/15 00:52:06;;;;;;;7.93;4.30;;;13.40;99.90;;;;;;4476122;26;20045;-60
2024/04/15 00:54:09;;;;;;;8.43;4.17;;;13.40;99.90;;;;;;4477521;26;20011;-57
2024/04/15 00:56:12;;;;;;;7.20;3.47;;;13.30;99.90;;;;;;4477500;26;20075;-58
2024/04/15 00:58:16;;;;;;;8.40;4.07;;;13.30;99.90;;;;;;4478229;26;20176;-60
2024/04/15 01:00:18;;;;;;;6.90;3.90;;;13.30;99.90;;;;;;4475325;26;20011;-59
2024/04/15 01:02:20;;;;;;;8.40;4.77;;;13.30;99.90;;;;;;4477354;26;20011;-59
2024/04/15 01:04:21;;;;;;;17.73;3.70;;;13.30;99.90;;;;;;4477617;26;20488;-59
2024/04/15 01:06:22;;;;;;;13.53;4.57;;;13.20;99.90;;;;;;4478350;26;19999;-60
2024/04/15 01:08:23;;;;;;;8.77;3.87;;;13.20;99.90;;;;;;4502719;26;20443;-60
2024/04/15 01:10:25;;;;;;;14.03;3.93;;;13.20;99.90;;;;;;4476814;26;20648;-58
2024/04/15 01:12:26;;;;;;;13.13;4.20;;;13.20;99.90;;;;;;4478507;26;20004;-58
2024/04/15 01:14:27;;;;;;;6.23;4.73;;;13.10;99.90;;;;;;4475802;26;20011;-58
2024/04/15 01:16:36;;;;;;;11.53;4.93;;;13.00;99.90;;;;;;4477774;26;20000;-60
2024/04/15 01:18:37;;;;;;;10.03;4.03;;;13.00;99.90;;;;;;4476783;26;20447;-58
2024/04/15 01:20:38;;;;;;;10.27;3.87;;;13.00;99.90;;;;;;4478092;26;20084;-58
2024/04/15 01:23:00;;;;;;;8.97;3.70;;;13.00;99.90;;;;;;4476250;26;19999;-60
2024/04/15 01:25:02;;;;;;;11.37;4.60;;;13.00;99.90;;;;;;4478494;26;20553;-60
2024/04/15 01:27:03;;;;;;;12.90;4.07;;;13.00;99.90;;;;;;4476782;26;20011;-59
2024/04/15 01:29:05;;;;;;;11.50;4.30;;;13.00;99.90;;;;;;4477673;26;20015;-58
2024/04/15 01:31:06;;;;;;;9.43;3.63;;;12.90;99.90;;;;;;4476189;26;20011;-56
2024/04/15 01:33:07;;;;;;;12.33;5.30;;;12.90;99.90;;;;;;4477950;26;20065;-58
2024/04/15 01:35:09;;;;;;;5.43;3.27;;;12.90;99.90;;;;;;4476392;26;20071;-56
2024/04/15 01:37:10;;;;;;;6.17;3.33;;;12.80;99.90;;;;;;4477873;26;20049;-60
2024/04/15 01:39:11;;;;;;;9.23;3.13;;;12.80;99.90;;;;;;4476193;26;20072;-59
2024/04/15 01:41:12;;;;;;;7.57;3.20;;;12.80;99.90;;;;;;4477777;26;20045;-57
2024/04/15 01:43:13;;;;;;;4.93;3.37;;;12.70;99.90;;;;;;4477307;26;20008;-59
2024/04/15 01:45:15;;;;;;;7.00;3.47;;;12.70;99.90;;;;;;4477480;26;20389;-60
2024/04/15 01:47:16;;;;;;;5.33;3.63;;;12.60;99.90;;;;;;4479295;26;20012;-58
2024/04/15 01:49:17;;;;;;;4.83;3.10;;;12.60;99.90;;;;;;4479127;26;19999;-59
2024/04/15 01:51:18;;;;;;;6.97;3.67;;;12.50;99.90;;;;;;4480660;26;20150;-59
2024/04/15 01:53:20;;;;;;;6.60;3.63;;;12.40;99.90;;;;;;4478859;26;20003;-59
2024/04/15 01:55:21;;;;;;;5.40;3.53;;;12.30;99.90;;;;;;4481112;26;19991;-58
2024/04/15 01:57:22;;;;;;;7.87;4.20;;;12.30;99.90;;;;;;4479333;26;20443;-60
2024/04/15 01:59:23;;;;;;;9.20;3.87;;;12.20;99.90;;;;;;4480663;26;20175;-58
2024/04/15 02:01:25;;;;;;;8.13;4.00;;;12.10;99.90;;;;;;4478846;26;20007;-59
2024/04/15 02:03:26;;;;;;;10.40;4.37;;;12.00;99.90;;;;;;4480383;26;20535;-58
2024/04/15 02:05:27;;;;;;;12.33;3.73;;;12.00;99.90;;;;;;4479951;26;20010;-59
2024/04/15 02:07:28;;;;;;;10.70;3.80;;;12.00;99.90;;;;;;4479258;26;20012;-58
2024/04/15 02:09:29;;;;;;;6.13;3.83;;;12.00;99.90;;;;;;4479123;26;20077;-59
2024/04/15 02:11:31;;;;;;;9.00;3.93;;;11.90;99.90;;;;;;4479329;26;20071;-60
2024/04/15 02:13:32;;;;;;;7.83;4.37;;;11.80;99.90;;;;;;4479934;26;20011;-57
2024/04/15 02:15:33;;;;;;;7.63;3.67;;;11.70;99.90;;;;;;4478319;26;20075;-60
2024/04/15 02:17:34;;;;;;;10.00;4.50;;;11.70;99.90;;;;;;4479393;26;20012;-58
2024/04/15 02:19:36;;;;;;;6.40;3.90;;;11.60;99.90;;;;;;4476926;26;20011;-59
2024/04/15 02:21:37;;;;;;;6.20;4.03;;;11.50;99.90;;;;;;4480214;26;19999;-59
2024/04/15 02:23:38;;;;;;;8.27;4.10;;;11.50;99.90;;;;;;4477536;26;20336;-60
2024/04/15 02:25:41;;;;;;;9.00;4.13;;;11.40;99.90;;;;;;4480316;26;20045;-61
2024/04/15 02:27:42;;;;;;;5.33;3.83;;;11.30;99.90;;;;;;4479222;26;20068;-59
2024/04/15 02:29:43;;;;;;;6.63;4.10;;;11.30;99.90;;;;;;4479861;26;20076;-60
2024/04/15 02:31:45;;;;;;;9.57;4.30;;;11.20;99.90;;;;;;4478835;26;19996;-59
2024/04/15 02:33:46;;;;;;;12.13;4.10;;;11.10;99.90;;;;;;4479536;26;20015;-60
2024/04/15 02:35:47;;;;;;;10.03;4.83;;;11.10;99.90;;;;;;4479706;26;20080;-59
2024/04/15 02:37:48;;;;;;;12.27;4.30;;;11.00;99.90;;;;;;4480070;26;20011;-59
2024/04/15 02:39:50;;;;;;;11.23;5.60;;;10.90;99.90;;;;;;4477875;26;20007;-58
2024/04/15 02:41:51;;;;;;;11.10;4.30;;;10.80;99.90;;;;;;4479656;26;20133;-60
2024/04/15 02:43:52;;;;;;;11.67;5.03;;;10.80;99.90;;;;;;4479709;26;20498;-60
2024/04/15 02:45:53;;;;;;;8.73;4.63;;;10.80;99.90;;;;;;4478266;26;20000;-59
2024/04/15 02:47:54;;;;;;;7.40;4.80;;;10.70;99.90;;;;;;4479190;26;20012;-59
2024/04/15 02:49:56;;;;;;;9.60;4.30;;;10.70;99.90;;;;;;4449423;26;20005;-58
2024/04/15 02:51:57;;;;;;;8.83;5.23;;;10.70;99.90;;;;;;4450022;26;20008;-60
2024/04/15 02:53:58;;;;;;;9.80;4.80;;;10.60;99.90;;;;;;4471592;26;20011;-59
2024/04/15 02:56:00;;;;;;;8.87;5.17;;;10.60;99.90;;;;;;4479397;26;20007;-55
2024/04/15 02:58:01;;;;;;;6.97;4.37;;;10.50;99.90;;;;;;4478561;26;20012;-59
2024/04/15 03:00:04;;;;;;;6.73;4.93;;;10.60;99.90;;;;;;4479813;26;20013;-57
2024/04/15 03:02:05;;;;;;;7.10;5.10;;;10.60;99.90;;;;;;4478228;26;20336;-59
2024/04/15 03:04:06;;;;;;;10.40;5.10;;;10.60;99.90;;;;;;4480316;26;20401;-60
2024/04/15 03:06:08;;;;;;;12.47;5.00;;;10.70;99.90;;;;;;4477256;26;20068;-58
2024/04/15 03:08:09;;;;;;;8.70;4.77;;;10.70;99.90;;;;;;4479179;26;20128;-58
2024/04/15 03:10:10;;;;;;;9.23;5.40;;;10.70;99.90;;;;;;4477479;26;20003;-59
2024/04/15 03:12:12;;;;;;;8.87;4.80;;;10.80;99.90;;;;;;4479579;26;20008;-59
2024/04/15 03:14:13;;;;;;;9.93;5.20;;;10.80;99.90;;;;;;4479416;26;19995;-60
2024/04/15 03:16:15;;;;;;;8.67;4.43;;;10.80;99.90;;;;;;4478984;26;20088;-60
2024/04/15 03:18:16;;;;;;;10.80;4.93;;;10.90;99.90;;;;;;4479171;26;20049;-56
2024/04/15 03:20:17;;;;;;;8.07;4.93;;;11.00;99.90;;;;;;4477729;26;20014;-60
2024/04/15 03:22:19;;;;;;;9.13;5.17;;;10.90;99.90;;;;;;4478480;26;20008;-57
2024/04/15 03:24:20;;;;;;;16.27;5.77;;;10.80;99.90;;;;;;4478276;26;20444;-58
2024/04/15 03:26:21;;;;;;;14.90;5.83;;;10.70;99.90;;;;;;4478868;26;20075;-59
2024/04/15 03:28:22;;;;;;;17.13;5.93;;;10.60;99.90;;;;;;4478709;26;19995;-59
2024/04/15 03:30:23;;;;;;;11.97;5.07;;;10.50;99.90;;;;;;4479690;26;20019;-60
2024/04/15 03:32:25;;;;;;;10.50;4.90;;;10.50;99.90;;;;;;4477363;26;20079;-59
2024/04/15 03:34:26;;;;;;;10.67;5.20;;;10.40;99.90;;;;;;4450818;26;20008;-59
2024/04/15 03:36:27;;;;;;;9.37;5.20;;;10.40;99.90;;;;;;4476888;26;20011;-59
2024/04/15 03:38:29;;;;;;;9.03;4.60;;;10.30;99.90;;;;;;4477080;26;20072;-60
2024/04/15 03:40:30;;;;;;;16.83;5.97;;;10.30;99.90;;;;;;4478219;26;20424;-59
2024/04/15 03:42:31;;;;;;;12.93;5.40;;;10.20;99.90;;;;;;4478650;26;20076;-60
2024/04/15 03:44:32;;;;;;;12.80;6.20;;;10.20;99.90;;;;;;4478737;26;20068;-59
2024/04/15 03:46:34;;;;;;;11.03;5.53;;;10.20;99.90;;;;;;4477885;26;20075;-58
2024/04/15 03:48:35;;;;;;;10.50;5.90;;;10.20;99.90;;;;;;4478006;26;20056;-59
2024/04/15 03:50:36;;;;;;;11.90;6.27;;;10.10;99.90;;;;;;4477289;26;20076;-60
2024/04/15 03:52:37;;;;;;;11.40;6.67;;;10.10;99.90;;;;;;4478775;26;20405;-55
2024/04/15 03:54:39;;;;;;;13.53;6.63;;;10.10;99.90;;;;;;4478168;26;20007;-59
2024/04/15 03:56:40;;;;;;;9.77;6.07;;;10.10;99.90;;;;;;4479624;26;20064;-60
2024/04/15 03:58:41;;;;;;;14.23;5.53;;;10.10;99.90;;;;;;4478280;26;20007;-58
2024/04/15 04:00:42;;;;;;;12.33;6.80;;;10.20;99.90;;;;;;4477507;26;19995;-57
2024/04/15 04:02:44;;;;;;;13.43;6.43;;;10.30;99.90;;;;;;4477260;26;20008;-59
2024/04/15 04:04:47;;;;;;;16.93;6.33;;;10.60;99.90;;;;;;4479741;26;20465;-60
2024/04/15 04:06:49;;;;;;;11.37;5.23;;;10.90;99.90;;;;;;4477988;26;20007;-58
2024/04/15 04:08:50;;;;;;;9.77;5.20;;;11.30;99.90;;;;;;4478353;26;20011;-56
2024/04/15 04:10:51;;;;;;;11.57;5.43;;;11.70;99.90;;;;;;4475734;26;20103;-57
2024/04/15 04:12:52;;;;;;;11.30;5.83;;;12.20;99.90;;;;;;4477070;26;20011;-59
2024/04/15 04:14:53;;;;;;;9.93;5.37;;;12.60;99.90;;;;;;4477692;26;20139;-62
2024/04/15 04:16:55;;;;;;;15.43;6.53;;;12.70;99.90;;;;;;4476934;26;20353;-59
2024/04/15 04:18:56;;;;;;;18.37;5.90;;;12.90;99.90;;;;;;4479017;26;20011;-58
2024/04/15 04:20:57;;;;;;;21.03;5.53;;;13.00;99.90;;;;;;4477061;26;20075;-60
2024/04/15 04:22:59;;;;;;;10.53;5.33;;;12.90;99.90;;;;;;4477080;26;20079;-59
2024/04/15 04:25:00;;;;;;;12.20;5.97;;;12.60;99.90;;;;;;4456753;26;20003;-57
2024/04/15 04:27:01;;;;;;;15.03;5.30;;;12.70;99.90;;;;;;4476984;26;20080;-58
2024/04/15 04:29:02;;;;;;;13.67;5.70;;;13.20;99.90;;;;;;4477356;26;20011;-55
2024/04/15 04:31:04;;;;;;;15.67;6.23;;;13.50;99.90;;;;;;4477943;26;20011;-60
2024/04/15 04:33:06;;;;;;;12.97;6.03;;;13.50;99.90;;;;;;4477751;26;19999;-61
2024/04/15 04:35:07;;;;;;;12.40;6.93;;;13.90;99.90;;;;;;4477843;26;20000;-55
2024/04/15 04:37:09;;;;;;;16.63;7.03;;;13.90;99.90;;;;;;4476760;26;21889;-61
2024/04/15 04:39:10;;;;;;;15.63;6.60;;;14.20;99.90;;;;;;4478253;26;20012;-59
2024/04/15 04:41:12;;;;;;;13.20;6.47;;;14.10;99.90;;;;;;4476098;26;20012;-58
2024/04/15 04:43:13;;;;;;;16.03;7.13;;;14.10;99.90;;;;;;4493502;26;20443;-58
2024/04/15 04:45:15;;;;;;;15.03;7.13;;;14.00;99.90;;;;;;4482463;26;20436;-58
2024/04/15 04:47:19;;;;;;;11.97;6.93;;;14.10;99.90;;;;;;4477598;26;20003;-58
2024/04/15 04:49:20;;;;;;;10.90;6.40;;;14.70;99.90;;;;;;4477192;26;20478;-58
2024/04/15 04:51:22;;;;;;;13.63;7.07;;;15.20;99.90;;;;;;4477527;26;20729;-58
2024/04/15 04:53:23;;;;;;;11.95;5.70;;;15.60;99.90;;;;;;4478104;26;20075;-57
2024/04/15 04:55:24;;;;;;;16.90;7.03;;;16.10;99.90;;;;;;4469703;26;20007;-57
2024/04/15 04:57:25;;;;;;;12.68;6.25;;;16.50;99.90;;;;;;4475949;26;20027;-57
2024/04/15 04:59:27;;;;;;;8.50;6.60;;;16.90;99.90;;;;;;4476854;26;20004;-57
2024/04/15 05:01:28;;;;;;;16.10;6.53;;;17.00;99.90;;;;;;4478007;26;20048;-57
2024/04/15 05:03:29;;;;;;;11.52;5.72;;;16.80;99.90;;;;;;4475898;26;20495;-58
2024/04/15 05:05:34;;;;;;;10.02;5.97;;;17.00;99.90;;;;;;4477930;26;20076;-59
2024/04/15 05:07:35;;;;;;;13.18;5.85;;;17.60;99.90;;;;;;4447596;26;20440;-58
2024/04/15 05:09:39;;;;;;;12.15;6.43;;;18.40;99.90;;;;;;4449375;26;20016;-56
2024/04/15 05:11:40;;;;;;;13.25;6.72;;;18.50;99.90;;;;;;4475435;26;20053;-58
2024/04/15 05:13:41;;;;;;;11.70;5.60;;;18.60;99.90;;;;;;4477506;26;20015;-58
2024/04/15 05:15:42;;;;;;;15.82;6.93;;;18.60;99.90;;;;;;4475610;26;20016;-59
2024/04/15 05:17:43;;;;;;;14.77;6.43;;;18.50;99.90;;;;;;4477191;26;20084;-56
2024/04/15 05:19:45;;;;;;;10.30;6.90;;;18.10;99.90;;;;;;4476449;26;20995;-57
2024/04/15 05:21:46;;;;;;;14.57;5.63;;;18.00;99.90;;;;;;4478019;26;20454;-57
2024/04/15 05:23:48;;;;;;;14.90;6.25;;;18.00;99.90;;;;;;4480142;26;20008;-56
2024/04/15 05:25:49;;;;;;;17.63;6.95;;;17.90;99.90;;;;;;4479651;26;20328;-58
2024/04/15 05:27:50;;;;;;;14.30;6.05;;;18.00;99.90;;;;;;4480892;26;20400;-57
2024/04/15 05:29:52;;;;;;;13.15;6.05;;;18.40;99.90;;;;;;4477852;26;20332;-59
2024/04/15 05:31:53;;;;;;;19.50;6.80;;;18.80;99.90;;;;;;4480183;26;20473;-57
2024/04/15 05:33:55;;;;;;;12.43;5.65;;;18.90;99.90;;;;;;4478435;26;20068;-56
2024/04/15 05:35:57;;;;;;;12.50;5.80;;;19.10;99.70;;;;;;4481171;26;19999;-58
2024/04/15 05:37:58;;;;;;;18.70;6.40;;;19.10;99.60;;;;;;4479588;26;20007;-56
2024/04/15 05:40:00;;;;;;;20.70;6.68;;;19.10;99.40;;;;;;4480526;26;20068;-57
2024/04/15 05:42:01;;;;;;;16.05;6.90;;;19.40;99.20;;;;;;4479851;26;20064;-56
2024/04/15 05:44:02;;;;;;;15.70;7.38;;;19.50;98.90;;;;;;4480303;26;20386;-56
2024/04/15 05:46:04;;;;;;;19.85;7.22;;;19.70;98.80;;;;;;4479748;26;20007;-57
2024/04/15 05:48:06;;;;;;;25.55;6.85;;;19.90;98.50;;;;;;4479781;26;20079;-55
2024/04/15 05:50:07;;;;;;;11.55;6.53;;;19.60;98.30;;;;;;4479532;26;20068;-55
2024/04/15 05:52:09;;;;;;;11.57;6.55;;;19.00;98.50;;;;;;4480155;26;20007;-57
2024/04/15 05:54:10;;;;;;;17.33;7.32;;;18.90;98.80;;;;;;4479440;26;20011;-61
2024/04/15 05:56:11;;;;;;;15.25;6.80;;;18.90;98.90;;;;;;4479100;26;20011;-54
2024/04/15 05:58:13;;;;;;;18.40;6.82;;;18.80;99.00;;;;;;4479929;26;20003;-53
2024/04/15 06:00:14;;;;;;;19.73;7.75;;;18.50;99.20;;;;;;4479172;26;20076;-57
2024/04/15 06:02:16;;;;;;;14.50;6.47;;;18.40;99.40;;;;;;4480140;26;19996;-58
2024/04/15 06:04:17;;;;;;;10.55;5.78;;;18.50;99.50;;;;;;4479821;26;20068;-58
2024/04/15 06:06:18;;;;;;;8.68;5.20;;;18.90;99.20;;;;;;4480145;26;20004;-54
2024/04/15 06:08:19;;;;;;;13.10;5.30;;;18.90;98.60;;;;;;4478386;26;20068;-57
2024/04/15 06:10:20;;;;;;;11.13;5.22;;;19.00;98.60;;;;;;4479713;26;19995;-56
2024/04/15 06:12:22;;;;;;;10.57;5.50;;;19.10;98.30;;;;;;4478929;26;20011;-57
2024/04/15 06:14:23;;;;;;;12.23;5.50;;;19.50;98.10;;;;;;4480348;26;20007;-58
2024/04/15 06:16:24;;;;;;;12.90;5.35;;;19.80;97.50;;;;;;4478271;26;20007;-57
2024/04/15 06:18:25;;;;;;;14.32;5.65;;;19.50;97.40;;;;;;4480176;26;20068;-58
2024/04/15 06:20:27;;;;;;;10.60;5.80;;;19.20;97.60;;;;;;4479253;26;20122;-54
2024/04/15 06:22:28;;;;;;;14.18;5.97;;;18.90;97.80;;;;;;4479059;26;20068;-59
2024/04/15 06:24:30;;;;;;;12.40;4.55;;;18.50;98.30;;;;;;4479953;26;20427;-57
2024/04/15 06:26:32;;;;;;;16.83;5.80;;;18.20;98.50;;;;;;4478826;26;20003;-56
2024/04/15 06:28:33;;;;;;;8.07;4.40;;;17.90;99.00;;;;;;4479971;26;20007;-56
2024/04/15 06:30:37;;;;;;;5.90;3.78;;;17.80;99.30;;;;;;4478697;26;20567;-56
2024/04/15 06:32:38;;;;;;;10.43;4.82;;;17.60;99.70;;;;;;4479405;26;20333;-54
2024/04/15 06:34:39;;;;;;;8.82;3.83;;;17.50;99.90;;;;;;4479466;26;19999;-59
2024/04/15 06:36:41;;;;;;;9.52;4.05;;;17.50;99.90;;;;;;4480281;26;20171;-57
2024/04/15 06:38:42;;;;;;;14.18;4.97;;;17.40;99.90;;;;;;4478812;26;20007;-58
2024/04/15 06:40:43;;;;;;;8.55;4.57;;;17.40;99.90;;;;;;4479734;26;20799;-58
2024/04/15 06:42:46;;;;;;;7.63;4.65;;;17.60;99.90;;;;;;4479075;26;20064;-53
2024/04/15 06:44:48;;;;;;;7.43;4.40;;;17.80;99.90;;;;;;4480024;26;20007;-57
2024/04/15 06:46:50;;;;;;;6.38;3.92;;;18.00;99.90;;;;;;4478236;26;20064;-55
2024/04/15 06:48:51;;;;;;;13.35;4.85;;;18.30;99.90;;;;;;4480080;26;20045;-58
2024/04/15 06:50:53;;;;;;;8.25;4.90;;;18.10;99.90;;;;;;4478530;26;20401;-53
2024/04/15 06:52:54;;;;;;;7.63;4.40;;;18.00;99.90;;;;;;4479195;26;20124;-60
2024/04/15 06:54:55;;;;;;;7.47;4.65;;;17.90;99.90;;;;;;4479197;26;20068;-54
2024/04/15 06:56:56;;;;;;;13.52;3.97;;;18.00;99.90;;;;;;4478501;26;20011;-58
2024/04/15 06:58:58;;;;;;;12.82;4.97;;;18.00;99.90;;;;;;4479643;26;20072;-57
2024/04/15 07:00:59;;;;;;;8.20;4.00;;;18.10;99.90;;;;;;4478620;26;20007;-58
2024/04/15 07:03:00;;;;;;;9.98;4.10;;;18.20;99.90;;;;;;4479400;26;20068;-57
2024/04/15 07:05:02;;;;;;;11.85;4.15;;;18.20;99.90;;;;;;4478713;26;20071;-57
2024/04/15 07:07:04;;;;;;;13.38;4.50;;;18.10;99.90;;;;;;4479089;26;20003;-58
2024/04/15 07:09:05;;;;;;;12.80;5.07;;;18.00;99.90;;;;;;4478208;26;19995;-57
2024/04/15 07:11:06;;;;;;;8.35;5.38;;;18.00;99.90;;;;;;4479515;26;19995;-58
2024/04/15 07:13:08;;;;;;;10.38;4.57;;;18.50;99.90;;;;;;4478061;26;20008;-56
2024/04/15 07:15:10;;;;;;;11.93;4.40;;;18.80;99.90;;;;;;4479960;26;20008;-58
2024/04/15 07:17:11;;;;;;;7.70;4.10;;;18.70;99.90;;;;;;4478237;26;20045;-57
2024/04/15 07:19:12;;;;;;;9.88;4.40;;;18.70;99.90;;;;;;4479831;26;20073;-54
2024/04/15 07:21:13;;;;;;;9.80;5.03;;;18.80;99.90;;;;;;4478015;26;20000;-53
2024/04/15 07:23:15;;;;;;;8.88;4.60;;;18.90;99.90;;;;;;4478289;26;20408;-57
2024/04/15 07:25:16;;;;;;;8.63;3.47;;;19.20;99.90;;;;;;4478341;26;20015;-56
2024/04/15 07:27:18;;;;;;;12.32;4.85;;;19.30;99.90;;;;;;4479353;26;20080;-55
2024/04/15 07:29:19;;;;;;;13.40;4.20;;;19.30;99.90;;;;;;4478956;26;20036;-57
2024/04/15 07:31:20;;;;;;;4.70;3.30;;;19.40;99.90;;;;;;4478292;26;20447;-56
2024/04/15 07:33:21;;;;;;;8.50;3.97;;;19.40;99.90;;;;;;4479002;26;20007;-55
2024/04/15 07:35:23;;;;;;;7.03;4.22;;;19.30;99.90;;;;;;4478645;26;20011;-58
2024/04/15 07:37:24;;;;;;;5.82;3.70;;;19.20;99.90;;;;;;4479442;26;20118;-58
2024/04/15 07:39:25;;;;;;;12.73;3.33;;;19.20;99.90;;;;;;4477184;26;20007;-57
2024/04/15 07:41:26;;;;;;;4.47;2.72;;;19.30;99.90;;;;;;4479099;26;20007;-57
2024/04/15 07:43:29;;;;;;;8.80;3.20;;;19.40;99.90;;;;;;4477700;26;20003;-57
2024/04/15 07:45:34;;;;;;;6.20;2.97;;;19.50;99.90;;;;;;4477844;26;20064;-55
2024/04/15 07:47:35;;;;;;;5.05;2.53;;;19.80;99.90;;;;;;4478303;26;20411;-56
2024/04/15 07:49:37;;;;;;;8.60;2.90;;;19.90;99.90;;;;;;4479452;26;20008;-58
2024/04/15 07:51:38;;;;;;;17.70;3.30;;;20.00;99.90;;;;;;4478154;26;20049;-58
2024/04/15 07:53:39;;;;;;;5.80;2.33;;;20.20;99.90;;;;;;4478401;26;20067;-58
2024/04/15 07:55:47;;;;;;;6.07;2.78;;;20.40;99.80;;;;;;4478061;26;20007;-58
2024/04/15 07:57:48;;;;;;;6.63;3.42;;;20.40;99.60;;;;;;4478198;26;20547;-57
2024/04/15 07:59:49;;;;;;;4.72;2.38;;;20.60;99.40;;;;;;4478237;26;20563;-57
2024/04/15 08:01:51;;;;;;;13.02;3.33;;;20.70;99.20;;;;;;4478166;26;20003;-58
2024/04/15 08:03:52;;;;;;;8.15;3.15;;;20.80;99.00;;;;;;4478488;26;19999;-57
2024/04/15 08:05:53;;;;;;;6.13;2.35;;;20.80;99.00;;;;;;4477409;26;20071;-58
2024/04/15 08:07:54;;;;;;;9.85;2.17;;;20.70;99.00;;;;;;4478140;26;20007;-58
2024/04/15 08:09:58;;;;;;;7.75;3.08;;;20.60;99.10;;;;;;4477436;26;20064;-56
2024/04/15 08:11:59;;;;;;;8.57;2.75;;;20.70;99.00;;;;;;4478016;26;20007;-55
2024/04/15 08:14:03;;;;;;;7.05;2.47;;;20.80;98.90;;;;;;4477496;26;20380;-58
2024/04/15 08:16:04;;;;;;;6.28;2.10;;;20.90;98.70;;;;;;4477958;26;20004;-57
2024/04/15 08:18:06;;;;;;;6.03;2.45;;;21.00;98.60;;;;;;4477375;26;20004;-60
2024/04/15 08:20:08;;;;;;;4.25;2.72;;;21.30;98.40;;;;;;4478315;26;20008;-58
2024/04/15 08:22:09;;;;;;;5.38;2.10;;;21.50;98.30;;;;;;4476651;26;20007;-58
2024/04/15 08:24:10;;;;;;;4.65;2.22;;;21.50;98.20;;;;;;4478139;26;20011;-57
2024/04/15 08:26:11;;;;;;;8.23;2.63;;;21.60;98.30;;;;;;4477558;26;20011;-59
2024/04/15 08:28:13;;;;;;;3.88;2.00;;;21.70;98.00;;;;;;4478070;26;19995;-57
2024/04/15 08:30:14;;;;;;;3.50;1.77;;;21.70;97.80;;;;;;4477476;26;20408;-60
2024/04/15 08:32:16;;;;;;;6.18;2.22;;;21.70;97.70;;;;;;4477009;26;20007;-59
2024/04/15 08:34:17;;;;;;;7.13;1.80;;;21.60;97.70;;;;;;4478130;26;20051;-58
2024/04/15 08:36:18;;;;;;;8.43;3.10;;;21.60;97.60;;;;;;4477774;26;20007;-60
2024/04/15 08:38:19;;;;;;;5.32;2.08;;;21.60;97.50;;;;;;4477774;26;20004;-57
2024/04/15 08:40:21;;;;;;;7.85;2.40;;;21.70;97.40;;;;;;4477397;26;20068;-60
2024/04/15 08:42:30;;;;;;;5.85;2.58;;;21.80;97.10;;;;;;4478294;26;20011;-56
2024/04/15 08:44:33;;;;;;;8.73;2.40;;;21.90;96.80;;;;;;4477495;26;20045;-57
2024/04/15 08:46:40;;;;;;;9.38;1.88;;;21.90;96.70;;;;;;4477798;26;20008;-59
2024/04/15 08:48:41;;;;;;;5.85;2.30;;;21.90;96.60;;;;;;4475999;26;20000;-55
2024/04/15 08:50:43;;;;;;;3.63;2.10;;;22.00;96.40;;;;;;4478262;26;20007;-58
2024/04/15 08:52:44;;;;;;;6.70;2.00;;;22.00;96.30;;;;;;4476844;26;20012;-56
2024/04/15 08:54:45;;;;;;;3.67;2.10;;;22.00;96.40;;;;;;4477872;26;20003;-58
2024/04/15 08:56:50;;;;;;;6.78;2.05;;;21.80;96.30;;;;;;4476702;26;20440;-59
2024/04/15 08:58:56;;;;;;;4.65;2.53;;;21.80;96.40;;;;;;4477847;26;20011;-58
2024/04/15 09:00:58;;;;;;;16.02;2.17;;;21.90;96.40;;;;;;4476838;26;20529;-58
2024/04/15 09:02:59;;;;;;;4.07;1.90;;;21.90;96.40;;;;;;4477987;26;20007;-55
2024/04/15 09:05:01;;;;;;;8.75;2.28;;;22.00;96.40;;;;;;4477089;26;20060;-57
2024/04/15 09:07:02;;;;;;;6.20;1.80;;;22.00;96.20;;;;;;4477201;26;20004;-57
2024/04/15 09:09:03;;;;;;;4.95;2.17;;;22.00;96.10;;;;;;4476860;26;19999;-58
2024/04/15 09:11:04;;;;;;;8.98;2.10;;;22.10;96.00;;;;;;4476597;26;19999;-59
2024/04/15 09:13:09;;;;;;;8.23;2.00;;;22.10;96.10;;;;;;4477880;26;20076;-58
2024/04/15 09:15:12;;;;;;;9.00;1.77;;;22.20;95.80;;;;;;4477706;26;20403;-56
2024/04/15 09:17:15;;;;;;;4.95;2.05;;;22.20;95.80;;;;;;4478061;26;20067;-58
2024/04/15 09:19:17;;;;;;;6.32;2.05;;;22.20;95.80;;;;;;4477098;26;20068;-58
2024/04/15 09:21:20;;;;;;;6.43;2.15;;;22.20;95.70;;;;;;4478113;26;20003;-57
2024/04/15 09:23:22;;;;;;;8.80;1.85;;;22.30;95.60;;;;;;4476503;26;20076;-53
2024/04/15 09:25:23;;;;;;;9.65;1.60;;;22.30;95.50;;;;;;4477685;26;19999;-59
2024/04/15 09:27:25;;;;;;;9.32;2.35;;;22.30;95.50;;;;;;4476421;26;20007;-57
2024/04/15 09:29:26;;;;;;;7.72;1.80;;;22.40;95.30;;;;;;4477620;26;20398;-56
2024/04/15 09:31:28;;;;;;;9.57;1.90;;;22.60;95.10;;;;;;4475882;26;20067;-57
2024/04/15 09:33:29;;;;;;;6.43;1.85;;;22.90;94.90;;;;;;4476869;26;20132;-54
2024/04/15 09:35:31;;;;;;;4.53;1.63;;;23.10;94.80;;;;;;4475475;26;20008;-58
2024/04/15 09:37:36;;;;;;;6.53;2.03;;;23.20;94.50;;;;;;4476597;26;20008;-58
2024/04/15 09:39:38;;;;;;;6.57;1.80;;;23.40;94.30;;;;;;4476458;26;20011;-57
2024/04/15 09:41:41;;;;;;;5.03;1.50;;;23.50;94.00;;;;;;4476194;26;20546;-57
2024/04/15 09:43:45;;;;;;;7.40;1.90;;;23.70;93.70;;;;;;4475812;26;20011;-56
2024/04/15 09:45:48;;;;;;;5.28;1.75;;;23.90;93.20;;;;;;4476710;26;20071;-58
2024/04/15 09:47:52;;;;;;;7.60;1.90;;;23.90;93.10;;;;;;4476983;26;20065;-55
2024/04/15 09:49:53;;;;;;;5.55;1.90;;;23.90;92.90;;;;;;4476422;26;19996;-53
2024/04/15 09:52:03;;;;;;;5.82;1.60;;;24.10;92.60;;;;;;4477419;26;20076;-57
2024/04/15 09:54:09;;;;;;;6.20;1.90;;;24.30;92.00;;;;;;4476012;26;20045;-57
2024/04/15 09:56:23;;;;;;;5.97;1.48;;;24.30;91.80;;;;;;4477368;26;20071;-57
2024/04/15 09:58:26;;;;;;;8.48;1.80;;;24.60;91.50;;;;;;4476464;26;20007;-57
2024/04/15 10:00:29;;;;;;;5.60;1.45;;;24.70;91.20;;;;;;4476409;26;20496;-60
2024/04/15 10:02:50;;;;;;;6.95;2.15;;;24.70;91.10;;;;;;4476104;26;20413;-57
2024/04/15 10:04:57;;;;;;;11.07;1.80;;;24.70;90.70;;;;;;4477165;26;20071;-56
2024/04/15 10:07:02;;;;;;;3.63;1.40;;;24.60;90.50;;;;;;4476057;26;20003;-58
2024/04/15 10:09:04;;;;;;;7.93;1.88;;;24.50;90.30;;;;;;4479440;26;20293;-56
2024/04/15 10:11:06;;;;;;;4.05;1.60;;;24.60;90.40;;;;;;4478630;26;20067;-57
2024/04/15 10:13:09;;;;;;;3.53;1.33;;;24.50;90.00;;;;;;4480777;26;19999;-58
2024/04/15 10:15:12;;;;;;;8.93;2.05;;;24.60;89.70;;;;;;4479474;26;20064;-56
2024/04/15 10:17:13;;;;;;;4.00;1.50;;;24.60;89.30;;;;;;4479904;26;20435;-57
2024/04/15 10:19:32;;;;;;;3.85;1.70;;;24.70;88.90;;;;;;4478786;26;20072;-58
2024/04/15 10:21:35;;;;;;;7.27;2.00;;;24.80;86.80;;;;;;4479915;26;20067;-57
2024/04/15 10:23:36;;;;;;;4.47;1.50;;;24.80;87.70;;;;;;4478300;26;20631;-59
2024/04/15 10:25:39;;;;;;;9.70;1.63;;;25.00;87.20;;;;;;4479702;26;20508;-58
2024/04/15 10:27:41;;;;;;;4.50;1.67;;;25.00;86.50;;;;;;4478686;26;20072;-59
2024/04/15 10:29:43;;;;;;;2.22;1.23;;;25.10;86.40;;;;;;4480571;26;19999;-58
2024/04/15 10:31:50;;;;;;;5.82;1.70;;;25.10;86.30;;;;;;4478711;26;20136;-57